createdAt,value
2019-01-26T00:00:53.162Z,21.20
2019-01-26T00:01:53.127Z,21.40
2019-01-26T00:02:53.107Z,22.10
2019-01-26T00:03:53.080Z,20.60
2019-01-26T00:04:53.059Z,22.30
2019-01-26T00:05:53.037Z,23.20
2019-01-26T00:06:53.012Z,22.70
2019-01-26T00:07:52.999Z,21.10
2019-01-26T00:08:52.963Z,24.00
2019-01-26T00:09:52.942Z,23.10
2019-01-26T00:10:52.917Z,23.30
2019-01-26T00:11:52.900Z,23.10
2019-01-26T00:12:52.873Z,23.60
2019-01-26T00:13:52.853Z,21.60
2019-01-26T00:14:52.826Z,22.00
2019-01-26T00:15:52.842Z,20.10
2019-01-26T00:16:52.781Z,24.30
2019-01-26T00:17:52.762Z,23.50
2019-01-26T00:18:52.732Z,21.80
2019-01-26T00:19:52.714Z,21.60
2019-01-26T00:20:52.685Z,22.70
2019-01-26T00:21:52.659Z,23.10
2019-01-26T00:22:52.635Z,23.40
2019-01-26T00:23:52.610Z,22.70
2019-01-26T00:24:52.589Z,22.50
2019-01-26T00:25:52.566Z,22.90
2019-01-26T00:26:52.546Z,22.60
2019-01-26T00:27:52.535Z,21.70
2019-01-26T00:28:52.497Z,22.90
2019-01-26T00:29:52.481Z,22.60
2019-01-26T00:30:52.452Z,21.30
2019-01-26T00:31:52.426Z,23.60
2019-01-26T00:32:52.411Z,23.50
2019-01-26T00:33:52.386Z,23.60
2019-01-26T00:34:52.362Z,20.90
2019-01-26T00:35:52.333Z,22.70
2019-01-26T00:36:52.314Z,22.90
2019-01-26T00:37:52.287Z,22.70
2019-01-26T00:38:52.270Z,22.50
2019-01-26T00:39:52.242Z,22.10
2019-01-26T00:40:52.219Z,23.20
2019-01-26T00:41:52.202Z,22.90
2019-01-26T00:42:52.176Z,22.40
2019-01-26T00:43:52.150Z,23.30
2019-01-26T00:44:52.130Z,23.60
2019-01-26T00:45:52.104Z,24.20
2019-01-26T00:46:52.078Z,25.10
2019-01-26T00:47:52.057Z,24.70
2019-01-26T00:48:52.039Z,24.70
2019-01-26T00:49:52.011Z,25.10
2019-01-26T00:50:51.992Z,24.50
2019-01-26T00:51:51.963Z,25.30
2019-01-26T00:52:51.941Z,25.20
2019-01-26T00:53:51.929Z,25.60
2019-01-26T00:54:51.899Z,26.60
2019-01-26T00:55:51.875Z,25.20
2019-01-26T00:56:51.849Z,27.00
2019-01-26T00:57:51.830Z,27.20
2019-01-26T00:58:51.863Z,29.20
2019-01-26T00:59:51.786Z,30.00
2019-01-26T01:00:51.764Z,29.00
2019-01-26T01:01:51.744Z,30.30
2019-01-26T01:02:51.718Z,30.10
2019-01-26T01:03:51.691Z,30.00
2019-01-26T01:04:51.667Z,28.90
2019-01-26T01:05:51.645Z,28.90
2019-01-26T01:06:51.625Z,31.40
2019-01-26T01:07:51.654Z,29.50
2019-01-26T01:08:51.580Z,31.60
2019-01-26T01:09:51.553Z,30.60
2019-01-26T01:10:51.530Z,33.00
2019-01-26T01:11:51.505Z,32.90
2019-01-26T01:12:51.485Z,32.30
2019-01-26T01:13:51.464Z,33.00
2019-01-26T01:14:51.448Z,33.70
2019-01-26T01:15:51.415Z,33.00
2019-01-26T01:16:51.392Z,33.60
2019-01-26T01:17:51.369Z,32.60
2019-01-26T01:18:51.411Z,35.10
2019-01-26T01:19:51.324Z,34.30
2019-01-26T01:20:51.332Z,35.20
2019-01-26T01:21:51.319Z,29.80
2019-01-26T01:22:51.273Z,34.40
2019-01-26T01:23:51.235Z,34.10
2019-01-26T01:24:51.212Z,35.40
2019-01-26T01:25:51.191Z,35.70
2019-01-26T01:26:51.177Z,35.50
2019-01-26T01:27:51.145Z,34.70
2019-01-26T01:28:51.124Z,35.10
2019-01-26T01:29:51.099Z,31.80
2019-01-26T01:30:51.079Z,35.60
2019-01-26T01:31:51.053Z,35.10
2019-01-26T01:32:51.031Z,33.70
2019-01-26T01:33:51.005Z,34.50
2019-01-26T01:34:51.027Z,34.80
2019-01-26T01:35:50.961Z,34.90
2019-01-26T01:36:50.942Z,35.80
2019-01-26T01:37:50.915Z,35.40
2019-01-26T01:38:50.899Z,35.40
2019-01-26T01:39:50.878Z,35.00
2019-01-26T01:40:50.855Z,35.80
2019-01-26T01:41:50.827Z,36.80
2019-01-26T01:42:50.804Z,35.40
2019-01-26T01:43:50.782Z,36.20
2019-01-26T01:44:50.759Z,34.10
2019-01-26T01:45:50.735Z,36.30
2019-01-26T01:46:50.714Z,35.30
2019-01-26T01:47:50.781Z,37.10
2019-01-26T01:48:50.673Z,38.50
2019-01-26T01:49:50.652Z,39.20
2019-01-26T01:50:50.625Z,39.70
2019-01-26T01:51:50.608Z,41.30
2019-01-26T01:52:50.581Z,40.70
2019-01-26T01:53:50.559Z,39.50
2019-01-26T01:54:50.536Z,40.90
2019-01-26T01:55:50.514Z,42.90
2019-01-26T01:56:50.491Z,41.50
2019-01-26T01:57:50.472Z,42.50
2019-01-26T01:58:50.447Z,44.20
2019-01-26T01:59:50.422Z,44.10
2019-01-26T02:00:50.401Z,45.90
2019-01-26T02:01:50.376Z,44.60
2019-01-26T02:02:50.357Z,41.90
2019-01-26T02:03:50.346Z,44.80
2019-01-26T02:04:50.310Z,47.00
2019-01-26T02:05:50.295Z,46.80
2019-01-26T02:06:50.263Z,46.60
2019-01-26T02:07:50.251Z,47.60
2019-01-26T02:08:50.222Z,47.90
2019-01-26T02:09:50.198Z,51.70
2019-01-26T02:10:50.175Z,50.70
2019-01-26T02:11:50.152Z,49.30
2019-01-26T02:12:50.134Z,50.70
2019-01-26T02:13:50.110Z,53.10
2019-01-26T02:14:50.090Z,52.90
2019-01-26T02:15:50.065Z,52.50
2019-01-26T02:16:50.365Z,54.90
2019-01-26T02:17:50.020Z,57.40
2019-01-26T02:18:49.997Z,53.80
2019-01-26T02:19:49.976Z,54.70
2019-01-26T02:20:49.957Z,52.20
2019-01-26T02:21:49.929Z,51.10
2019-01-26T02:22:49.907Z,58.10
2019-01-26T02:23:49.886Z,55.50
2019-01-26T02:24:49.860Z,56.80
2019-01-26T02:25:49.893Z,54.60
2019-01-26T02:26:49.817Z,56.40
2019-01-26T02:27:49.795Z,58.00
2019-01-26T02:28:49.773Z,59.10
2019-01-26T02:29:49.762Z,56.50
2019-01-26T02:30:49.731Z,60.20
2019-01-26T02:31:49.706Z,59.20
2019-01-26T02:32:49.687Z,56.10
2019-01-26T02:33:49.662Z,59.30
2019-01-26T02:34:49.656Z,48.60
2019-01-26T02:35:49.617Z,57.70
2019-01-26T02:36:49.601Z,58.40
2019-01-26T02:37:49.583Z,57.00
2019-01-26T02:38:49.551Z,57.20
2019-01-26T02:39:49.528Z,56.80
2019-01-26T02:40:49.508Z,57.50
2019-01-26T02:41:49.482Z,58.50
2019-01-26T02:42:49.465Z,57.50
2019-01-26T02:43:49.441Z,59.60
2019-01-26T02:44:49.421Z,57.80
2019-01-26T02:45:49.398Z,58.80
2019-01-26T02:46:49.371Z,58.80
2019-01-26T02:47:49.351Z,58.50
2019-01-26T02:48:49.328Z,63.40
2019-01-26T02:49:49.309Z,60.60
2019-01-26T02:50:49.283Z,60.60
2019-01-26T02:51:49.263Z,62.60
2019-01-26T02:52:49.248Z,60.00
2019-01-26T02:53:49.221Z,58.10
2019-01-26T02:54:49.199Z,60.50
2019-01-26T02:55:49.175Z,59.80
2019-01-26T02:56:49.149Z,60.50
2019-01-26T02:57:49.127Z,61.90
2019-01-26T02:58:49.112Z,61.30
2019-01-26T02:59:49.087Z,60.90
2019-01-26T03:00:49.060Z,62.00
2019-01-26T03:01:49.039Z,61.10
2019-01-26T03:02:49.020Z,58.50
2019-01-26T03:03:48.995Z,61.10
2019-01-26T03:04:48.975Z,59.60
2019-01-26T03:05:48.948Z,61.80
2019-01-26T03:06:48.932Z,60.60
2019-01-26T03:07:48.908Z,62.60
2019-01-26T03:08:48.890Z,61.10
2019-01-26T03:09:48.866Z,59.90
2019-01-26T03:10:48.844Z,62.70
2019-01-26T03:11:48.817Z,60.30
2019-01-26T03:12:48.844Z,61.10
2019-01-26T03:13:48.776Z,62.00
2019-01-26T03:14:48.749Z,57.60
2019-01-26T03:15:48.731Z,62.20
2019-01-26T03:16:48.708Z,64.60
2019-01-26T03:17:48.683Z,64.90
2019-01-26T03:18:48.660Z,62.80
2019-01-26T03:19:48.640Z,62.90
2019-01-26T03:20:48.615Z,65.20
2019-01-26T03:21:48.596Z,67.30
2019-01-26T03:22:48.574Z,65.80
2019-01-26T03:23:48.553Z,64.60
2019-01-26T03:24:48.539Z,62.30
2019-01-26T03:25:48.504Z,66.00
2019-01-26T03:26:48.485Z,71.40
2019-01-26T03:27:48.462Z,67.50
2019-01-26T03:28:48.444Z,62.40
2019-01-26T03:29:48.462Z,63.80
2019-01-26T03:30:48.399Z,62.60
2019-01-26T03:31:48.375Z,68.40
2019-01-26T03:32:48.354Z,63.00
2019-01-26T03:33:48.333Z,69.50
2019-01-26T03:34:48.308Z,66.20
2019-01-26T03:35:48.289Z,63.50
2019-01-26T03:36:48.287Z,64.40
2019-01-26T03:37:48.242Z,66.90
2019-01-26T03:38:48.224Z,64.80
2019-01-26T03:39:48.198Z,64.50
2019-01-26T03:40:48.177Z,47.30
2019-01-26T03:41:48.154Z,64.90
2019-01-26T03:42:48.135Z,61.10
2019-01-26T03:43:48.115Z,58.90
2019-01-26T03:44:48.094Z,43.40
2019-01-26T03:45:48.068Z,59.50
2019-01-26T03:46:48.050Z,56.30
2019-01-26T03:47:48.028Z,56.50
2019-01-26T03:48:48.004Z,55.00
2019-01-26T03:49:47.981Z,54.80
2019-01-26T03:50:47.961Z,55.00
2019-01-26T03:51:47.935Z,53.60
2019-01-26T03:52:47.912Z,52.80
2019-01-26T03:53:47.898Z,53.00
2019-01-26T03:54:47.871Z,51.90
2019-01-26T03:55:47.845Z,53.10
2019-01-26T03:56:47.824Z,53.30
2019-01-26T03:57:47.802Z,50.30
2019-01-26T03:58:47.789Z,48.90
2019-01-26T03:59:47.758Z,53.70
2019-01-26T04:00:47.746Z,52.70
2019-01-26T04:01:47.717Z,50.20
2019-01-26T04:02:47.697Z,50.70
2019-01-26T04:03:47.672Z,52.20
2019-01-26T04:04:47.649Z,52.20
2019-01-26T04:05:47.627Z,49.40
2019-01-26T04:06:47.605Z,51.00
2019-01-26T04:07:47.585Z,51.50
2019-01-26T04:08:47.564Z,52.10
2019-01-26T04:09:47.538Z,53.70
2019-01-26T04:10:47.516Z,53.20
2019-01-26T04:11:47.505Z,53.10
2019-01-26T04:12:47.483Z,52.20
2019-01-26T04:13:47.479Z,52.80
2019-01-26T04:14:47.433Z,53.30
2019-01-26T04:15:47.406Z,53.10
2019-01-26T04:16:47.383Z,53.80
2019-01-26T04:17:47.360Z,52.50
2019-01-26T04:18:47.342Z,51.40
2019-01-26T04:19:47.319Z,52.00
2019-01-26T04:20:47.313Z,51.90
2019-01-26T04:21:47.284Z,51.00
2019-01-26T04:22:47.260Z,51.10
2019-01-26T04:23:47.236Z,52.50
2019-01-26T04:24:47.211Z,51.90
2019-01-26T04:25:47.198Z,52.20
2019-01-26T04:26:47.169Z,52.50
2019-01-26T04:27:47.146Z,52.20
2019-01-26T04:28:47.125Z,50.40
2019-01-26T04:29:47.101Z,51.90
2019-01-26T04:30:47.081Z,50.30
2019-01-26T04:31:47.057Z,52.60
2019-01-26T04:32:47.041Z,51.50
2019-01-26T04:33:47.018Z,48.70
2019-01-26T04:34:47.001Z,50.00
2019-01-26T04:35:46.979Z,47.90
2019-01-26T04:36:46.957Z,51.00
2019-01-26T04:37:46.933Z,50.60
2019-01-26T04:38:46.906Z,48.20
2019-01-26T04:39:46.884Z,51.60
2019-01-26T04:40:46.862Z,50.90
2019-01-26T04:41:46.841Z,49.00
2019-01-26T04:42:46.833Z,48.60
2019-01-26T04:43:46.799Z,48.60
2019-01-26T04:44:46.774Z,49.80
2019-01-26T04:45:46.753Z,45.80
2019-01-26T04:46:46.738Z,47.70
2019-01-26T04:47:46.712Z,50.00
2019-01-26T04:48:46.690Z,48.60
2019-01-26T04:49:46.665Z,50.30
2019-01-26T04:50:46.644Z,50.40
2019-01-26T04:51:46.628Z,47.90
2019-01-26T04:52:46.606Z,48.60
2019-01-26T04:53:46.576Z,47.40
2019-01-26T04:54:46.557Z,48.30
2019-01-26T04:55:46.533Z,47.60
2019-01-26T04:56:46.513Z,47.90
2019-01-26T04:57:46.503Z,45.30
2019-01-26T04:58:46.472Z,47.80
2019-01-26T04:59:46.456Z,46.00
2019-01-26T05:00:46.426Z,45.60
2019-01-26T05:01:46.404Z,46.80
2019-01-26T05:02:46.386Z,45.50
2019-01-26T05:03:46.369Z,45.10
2019-01-26T05:04:46.343Z,43.10
2019-01-26T05:05:46.319Z,46.70
2019-01-26T05:06:46.307Z,45.10
2019-01-26T05:07:46.274Z,45.70
2019-01-26T05:08:46.258Z,43.60
2019-01-26T05:09:46.227Z,44.30
2019-01-26T05:10:46.215Z,46.20
2019-01-26T05:11:46.185Z,44.30
2019-01-26T05:12:46.165Z,42.40
2019-01-26T05:13:46.141Z,46.40
2019-01-26T05:14:46.132Z,44.70
2019-01-26T05:15:46.101Z,43.00
2019-01-26T05:16:46.083Z,43.20
2019-01-26T05:17:46.057Z,45.30
2019-01-26T05:18:46.034Z,43.40
2019-01-26T05:19:46.013Z,44.40
2019-01-26T05:20:45.993Z,41.90
2019-01-26T05:21:45.969Z,44.40
2019-01-26T05:22:45.953Z,46.00
2019-01-26T05:23:45.924Z,45.00
2019-01-26T05:24:45.923Z,46.40
2019-01-26T05:25:45.882Z,46.20
2019-01-26T05:26:45.864Z,46.10
2019-01-26T05:27:45.841Z,44.70
2019-01-26T05:28:45.818Z,44.40
2019-01-26T05:29:45.826Z,46.80
2019-01-26T05:30:45.776Z,43.20
2019-01-26T05:31:45.771Z,45.90
2019-01-26T05:32:45.731Z,44.70
2019-01-26T05:33:45.709Z,44.10
2019-01-26T05:34:45.703Z,44.90
2019-01-26T05:35:45.667Z,43.50
2019-01-26T05:36:45.650Z,45.20
2019-01-26T05:37:45.625Z,45.70
2019-01-26T05:38:45.603Z,44.10
2019-01-26T05:39:45.596Z,43.00
2019-01-26T05:40:45.562Z,44.00
2019-01-26T05:41:45.536Z,44.30
2019-01-26T05:42:45.514Z,45.40
2019-01-26T05:43:45.492Z,45.50
2019-01-26T05:44:45.472Z,43.50
2019-01-26T05:45:45.451Z,42.60
2019-01-26T05:46:45.429Z,45.60
2019-01-26T05:47:48.749Z,42.30
2019-01-26T05:48:45.385Z,45.70
2019-01-26T05:49:45.361Z,46.90
2019-01-26T05:50:45.346Z,47.60
2019-01-26T05:51:45.319Z,45.50
2019-01-26T05:52:45.301Z,47.90
2019-01-26T05:53:45.277Z,48.70
2019-01-26T05:54:45.255Z,44.80
2019-01-26T05:55:45.235Z,49.20
2019-01-26T05:56:45.216Z,47.00
2019-01-26T05:57:45.192Z,48.70
2019-01-26T05:58:45.188Z,49.50
2019-01-26T05:59:45.150Z,48.30
2019-01-26T06:00:45.126Z,48.30
2019-01-26T06:01:45.104Z,47.90
2019-01-26T06:02:45.091Z,50.30
2019-01-26T06:03:45.061Z,51.90
2019-01-26T06:04:45.039Z,46.90
2019-01-26T06:05:45.029Z,51.90
2019-01-26T06:06:44.995Z,51.20
2019-01-26T06:07:44.978Z,50.00
2019-01-26T06:08:44.957Z,50.30
2019-01-26T06:09:44.934Z,41.00
2019-01-26T06:10:44.916Z,52.40
2019-01-26T06:11:44.892Z,52.60
2019-01-26T06:12:44.867Z,53.10
2019-01-26T06:13:44.843Z,50.70
2019-01-26T06:14:44.831Z,51.40
2019-01-26T06:15:44.807Z,54.00
2019-01-26T06:16:44.799Z,54.10
2019-01-26T06:17:44.760Z,52.30
2019-01-26T06:18:44.736Z,53.20
2019-01-26T06:19:44.715Z,53.00
2019-01-26T06:20:44.703Z,52.00
2019-01-26T06:21:44.675Z,55.10
2019-01-26T06:22:44.652Z,52.70
2019-01-26T06:23:44.627Z,53.30
2019-01-26T06:24:44.607Z,55.00
2019-01-26T06:25:44.594Z,56.20
2019-01-26T06:26:44.568Z,54.10
2019-01-26T06:27:44.543Z,53.70
2019-01-26T06:28:44.521Z,53.90
2019-01-26T06:29:44.500Z,53.80
2019-01-26T06:30:44.479Z,54.80
2019-01-26T06:31:44.474Z,55.00
2019-01-26T06:32:44.435Z,53.40
2019-01-26T06:33:44.427Z,54.90
2019-01-26T06:34:44.394Z,53.70
2019-01-26T06:35:44.371Z,52.30
2019-01-26T06:36:44.356Z,52.50
2019-01-26T06:37:44.329Z,52.00
2019-01-26T06:38:44.307Z,50.40
2019-01-26T06:39:44.286Z,52.30
2019-01-26T06:40:44.267Z,52.90
2019-01-26T06:41:44.243Z,53.10
2019-01-26T06:42:44.228Z,53.00
2019-01-26T06:43:44.199Z,51.40
2019-01-26T06:44:44.181Z,53.00
2019-01-26T06:45:44.169Z,49.40
2019-01-26T06:46:44.136Z,49.70
2019-01-26T06:47:44.117Z,49.10
2019-01-26T06:48:44.092Z,48.50
2019-01-26T06:49:44.075Z,51.00
2019-01-26T06:50:44.052Z,50.00
2019-01-26T06:51:44.031Z,51.80
2019-01-26T06:52:44.014Z,49.30
2019-01-26T06:53:43.986Z,49.00
2019-01-26T06:54:43.965Z,51.60
2019-01-26T06:55:43.945Z,49.20
2019-01-26T06:56:43.924Z,49.30
2019-01-26T06:57:43.910Z,49.80
2019-01-26T06:58:43.880Z,51.10
2019-01-26T06:59:43.861Z,48.80
2019-01-26T07:00:43.839Z,48.50
2019-01-26T07:01:43.820Z,47.50
2019-01-26T07:02:43.803Z,47.20
2019-01-26T07:03:43.777Z,49.10
2019-01-26T07:04:43.755Z,50.30
2019-01-26T07:05:43.737Z,49.10
2019-01-26T07:06:43.712Z,48.30
2019-01-26T07:07:43.695Z,48.10
2019-01-26T07:08:43.668Z,47.90
2019-01-26T07:09:43.651Z,49.10
2019-01-26T07:10:43.631Z,47.60
2019-01-26T07:11:43.611Z,50.80
2019-01-26T07:12:43.584Z,49.60
2019-01-26T07:13:43.566Z,48.70
2019-01-26T07:14:43.542Z,47.80
2019-01-26T07:15:43.522Z,44.90
2019-01-26T07:16:43.506Z,48.10
2019-01-26T07:17:43.488Z,46.90
2019-01-26T07:18:43.470Z,47.20
2019-01-26T07:19:43.441Z,47.40
2019-01-26T07:20:43.419Z,44.70
2019-01-26T07:21:43.395Z,43.20
2019-01-26T07:22:43.379Z,43.40
2019-01-26T07:23:43.355Z,43.30
2019-01-26T07:24:43.335Z,44.50
2019-01-26T07:25:43.317Z,43.90
2019-01-26T07:26:43.291Z,43.70
2019-01-26T07:27:43.289Z,44.80
2019-01-26T07:28:43.260Z,43.90
2019-01-26T07:29:43.227Z,43.60
2019-01-26T07:30:43.209Z,42.80
2019-01-26T07:31:43.186Z,41.90
2019-01-26T07:32:43.172Z,42.20
2019-01-26T07:33:43.144Z,43.10
2019-01-26T07:34:43.120Z,42.40
2019-01-26T07:35:43.097Z,42.10
2019-01-26T07:36:43.077Z,40.90
2019-01-26T07:37:43.056Z,40.80
2019-01-26T07:38:43.038Z,41.10
2019-01-26T07:39:43.015Z,41.60
2019-01-26T07:40:42.992Z,41.10
2019-01-26T07:41:42.970Z,41.40
2019-01-26T07:42:42.950Z,43.00
2019-01-26T07:43:42.930Z,39.20
2019-01-26T07:44:42.907Z,41.20
2019-01-26T07:45:42.888Z,40.60
2019-01-26T07:46:42.865Z,41.20
2019-01-26T07:47:42.848Z,41.80
2019-01-26T07:48:42.824Z,39.60
2019-01-26T07:49:42.802Z,41.30
2019-01-26T07:50:42.793Z,38.60
2019-01-26T07:51:42.762Z,38.40
2019-01-26T07:52:42.744Z,38.40
2019-01-26T07:53:42.721Z,39.00
2019-01-26T07:54:42.695Z,38.50
2019-01-26T07:55:42.678Z,39.00
2019-01-26T07:56:42.664Z,34.60
2019-01-26T07:57:42.643Z,37.10
2019-01-26T07:58:42.614Z,38.60
2019-01-26T07:59:42.592Z,38.70
2019-01-26T08:00:42.567Z,37.80
2019-01-26T08:01:42.551Z,37.80
2019-01-26T08:02:42.524Z,38.40
2019-01-26T08:03:42.505Z,37.80
2019-01-26T08:04:42.484Z,37.50
2019-01-26T08:05:42.470Z,37.80
2019-01-26T08:06:42.440Z,38.50
2019-01-26T08:07:42.426Z,35.10
2019-01-26T08:08:42.399Z,38.20
2019-01-26T08:09:42.377Z,37.70
2019-01-26T08:10:42.359Z,36.50
2019-01-26T08:11:42.518Z,35.60
2019-01-26T08:12:42.324Z,35.40
2019-01-26T08:13:42.298Z,36.20
2019-01-26T08:14:42.275Z,35.70
2019-01-26T08:15:42.255Z,35.70
2019-01-26T08:16:42.231Z,34.40
2019-01-26T08:17:42.215Z,34.70
2019-01-26T08:18:42.189Z,33.70
2019-01-26T08:19:42.172Z,34.20
2019-01-26T08:20:42.148Z,34.60
2019-01-26T08:21:42.124Z,33.40
2019-01-26T08:22:42.112Z,33.90
2019-01-26T08:23:42.083Z,34.50
2019-01-26T08:24:42.067Z,33.70
2019-01-26T08:25:42.039Z,32.80
2019-01-26T08:26:42.016Z,33.00
2019-01-26T08:27:41.998Z,33.60
2019-01-26T08:28:41.974Z,33.10
2019-01-26T08:29:41.961Z,30.40
2019-01-26T08:30:41.936Z,31.90
2019-01-26T08:31:41.910Z,32.10
2019-01-26T08:32:41.893Z,31.30
2019-01-26T08:33:41.868Z,31.10
2019-01-26T08:34:41.850Z,31.40
2019-01-26T08:35:41.829Z,32.20
2019-01-26T08:36:41.805Z,32.20
2019-01-26T08:37:41.792Z,32.30
2019-01-26T08:38:41.764Z,34.70
2019-01-26T08:39:41.744Z,33.00
2019-01-26T08:40:41.725Z,33.60
2019-01-26T08:41:41.708Z,32.50
2019-01-26T08:42:41.679Z,33.30
2019-01-26T08:43:41.656Z,31.70
2019-01-26T08:44:41.636Z,32.70
2019-01-26T08:45:41.615Z,33.10
2019-01-26T08:46:41.593Z,33.40
2019-01-26T08:47:41.579Z,32.10
2019-01-26T08:48:41.554Z,33.80
2019-01-26T08:49:41.531Z,34.60
2019-01-26T08:50:41.510Z,33.00
2019-01-26T08:51:41.488Z,30.80
2019-01-26T08:52:41.469Z,34.00
2019-01-26T08:53:41.448Z,34.00
2019-01-26T08:54:41.424Z,34.10
2019-01-26T08:55:41.409Z,32.70
2019-01-26T08:56:41.382Z,31.90
2019-01-26T08:57:41.359Z,32.80
2019-01-26T08:58:41.351Z,34.10
2019-01-26T08:59:41.318Z,32.10
2019-01-26T09:00:41.305Z,30.90
2019-01-26T09:01:41.279Z,30.80
2019-01-26T09:02:41.256Z,33.10
2019-01-26T09:03:41.236Z,33.00
2019-01-26T09:04:41.224Z,32.30
2019-01-26T09:05:41.193Z,33.30
2019-01-26T09:06:41.171Z,29.90
2019-01-26T09:07:41.150Z,31.60
2019-01-26T09:08:41.130Z,31.90
2019-01-26T09:09:41.107Z,29.50
2019-01-26T09:10:41.094Z,31.10
2019-01-26T09:11:41.072Z,29.40
2019-01-26T09:12:41.057Z,29.60
2019-01-26T09:13:41.027Z,29.60
2019-01-26T09:14:41.018Z,29.50
2019-01-26T09:15:40.982Z,29.10
2019-01-26T09:16:40.965Z,28.30
2019-01-26T09:17:40.944Z,28.70
2019-01-26T09:18:40.919Z,28.10
2019-01-26T09:19:40.901Z,29.20
2019-01-26T09:20:40.878Z,27.90
2019-01-26T09:21:40.860Z,28.40
2019-01-26T09:22:40.837Z,27.00
2019-01-26T09:23:40.821Z,29.80
2019-01-26T09:24:40.793Z,29.80
2019-01-26T09:25:40.774Z,29.40
2019-01-26T09:26:40.754Z,29.00
2019-01-26T09:27:40.743Z,28.10
2019-01-26T09:28:40.713Z,29.20
2019-01-26T09:29:40.688Z,28.80
2019-01-26T09:30:40.666Z,28.20
2019-01-26T09:31:40.651Z,28.10
2019-01-26T09:32:40.632Z,27.10
2019-01-26T09:33:40.608Z,27.00
2019-01-26T09:34:40.582Z,26.20
2019-01-26T09:35:40.559Z,27.10
2019-01-26T09:36:40.543Z,26.20
2019-01-26T09:37:40.521Z,26.10
2019-01-26T09:38:40.500Z,24.60
2019-01-26T09:39:40.477Z,25.00
2019-01-26T09:40:40.463Z,26.10
2019-01-26T09:41:40.435Z,27.70
2019-01-26T09:42:40.413Z,25.90
2019-01-26T09:43:40.404Z,26.90
2019-01-26T09:44:40.376Z,26.50
2019-01-26T09:45:40.355Z,26.80
2019-01-26T09:46:40.353Z,27.10
2019-01-26T09:47:40.308Z,26.90
2019-01-26T09:48:46.209Z,27.10
2019-01-26T09:49:40.270Z,27.10
2019-01-26T09:50:40.246Z,25.30
2019-01-26T09:51:40.232Z,25.50
2019-01-26T09:52:40.205Z,26.50
2019-01-26T09:53:40.190Z,25.80
2019-01-26T09:54:40.160Z,25.90
2019-01-26T09:55:40.139Z,24.90
2019-01-26T09:56:40.123Z,25.70
2019-01-26T09:57:40.100Z,25.00
2019-01-26T09:58:40.081Z,24.40
2019-01-26T09:59:40.062Z,24.70
2019-01-26T10:00:40.042Z,23.60
2019-01-26T10:01:40.019Z,23.70
2019-01-26T10:02:39.994Z,23.30
2019-01-26T10:03:39.976Z,24.00
2019-01-26T10:04:39.953Z,23.00
2019-01-26T10:05:39.941Z,22.30
2019-01-26T10:06:39.911Z,23.40
2019-01-26T10:07:39.891Z,23.40
2019-01-26T10:08:39.872Z,21.40
2019-01-26T10:09:39.851Z,22.80
2019-01-26T10:10:39.828Z,23.50
2019-01-26T10:11:39.827Z,24.00
2019-01-26T10:12:39.787Z,24.60
2019-01-26T10:13:39.771Z,24.70
2019-01-26T10:14:39.755Z,23.00
2019-01-26T10:15:39.722Z,24.30
2019-01-26T10:16:39.709Z,24.80
2019-01-26T10:17:45.729Z,24.30
2019-01-26T10:18:39.670Z,25.10
2019-01-26T10:19:39.642Z,25.70
2019-01-26T10:20:39.625Z,25.60
2019-01-26T10:21:39.600Z,24.50
2019-01-26T10:22:39.575Z,25.00
2019-01-26T10:23:39.554Z,24.40
2019-01-26T10:24:39.535Z,27.10
2019-01-26T10:25:39.517Z,26.20
2019-01-26T10:26:39.490Z,26.60
2019-01-26T10:27:39.477Z,26.20
2019-01-26T10:28:39.449Z,26.10
2019-01-26T10:29:39.429Z,27.70
2019-01-26T10:30:39.417Z,27.30
2019-01-26T10:31:39.388Z,27.50
2019-01-26T10:32:39.370Z,27.20
2019-01-26T10:33:39.346Z,28.20
2019-01-26T10:34:39.325Z,26.70
2019-01-26T10:35:39.309Z,27.80
2019-01-26T10:36:39.285Z,29.80
2019-01-26T10:37:39.265Z,27.80
2019-01-26T10:38:39.242Z,28.70
2019-01-26T10:39:39.220Z,29.90
2019-01-26T10:40:39.199Z,29.00
2019-01-26T10:41:39.176Z,30.40
2019-01-26T10:42:39.160Z,29.60
2019-01-26T10:43:39.139Z,29.70
2019-01-26T10:44:39.129Z,30.20
2019-01-26T10:45:39.100Z,31.20
2019-01-26T10:46:39.076Z,29.70
2019-01-26T10:47:39.051Z,30.10
2019-01-26T10:48:39.034Z,28.50
2019-01-26T10:49:39.009Z,28.20
2019-01-26T10:50:38.987Z,28.40
2019-01-26T10:51:38.977Z,30.00
2019-01-26T10:52:38.947Z,29.80
2019-01-26T10:53:38.923Z,28.70
2019-01-26T10:54:38.906Z,28.40
2019-01-26T10:55:38.882Z,26.40
2019-01-26T10:56:38.892Z,28.60
2019-01-26T10:57:38.856Z,29.00
2019-01-26T10:58:38.821Z,28.50
2019-01-26T10:59:38.818Z,28.40
2019-01-26T11:00:38.781Z,28.10
2019-01-26T11:01:38.755Z,26.10
2019-01-26T11:02:38.739Z,27.50
2019-01-26T11:03:38.715Z,24.50
2019-01-26T11:04:38.698Z,25.80
2019-01-26T11:05:38.682Z,26.30
2019-01-26T11:06:38.658Z,24.40
2019-01-26T11:07:38.646Z,24.50
2019-01-26T11:08:38.611Z,23.40
2019-01-26T11:09:38.589Z,24.20
2019-01-26T11:10:38.579Z,23.80
2019-01-26T11:11:38.552Z,23.60
2019-01-26T11:12:38.537Z,23.20
2019-01-26T11:13:38.508Z,22.60
2019-01-26T11:14:38.493Z,21.50
2019-01-26T11:15:38.466Z,21.20
2019-01-26T11:16:38.445Z,21.80
2019-01-26T11:17:38.425Z,21.90
2019-01-26T11:18:38.402Z,21.00
2019-01-26T11:19:38.385Z,18.50
2019-01-26T11:20:38.361Z,19.60
2019-01-26T11:21:38.338Z,20.50
2019-01-26T11:22:38.365Z,20.60
2019-01-26T11:23:38.301Z,20.70
2019-01-26T11:24:38.287Z,21.50
2019-01-26T11:25:38.254Z,19.90
2019-01-26T11:26:38.240Z,19.10
2019-01-26T11:27:38.213Z,19.60
2019-01-26T11:28:38.204Z,20.70
2019-01-26T11:29:38.178Z,20.80
2019-01-26T11:30:38.157Z,20.70
2019-01-26T11:31:38.131Z,19.30
2019-01-26T11:32:38.123Z,20.10
2019-01-26T11:33:38.100Z,21.20
2019-01-26T11:34:38.099Z,20.10
2019-01-26T11:35:38.053Z,19.60
2019-01-26T11:36:38.027Z,20.00
2019-01-26T11:37:38.003Z,20.30
2019-01-26T11:38:37.984Z,20.20
2019-01-26T11:39:37.963Z,20.70
2019-01-26T11:40:37.942Z,20.20
2019-01-26T11:41:37.922Z,20.60
2019-01-26T11:42:37.900Z,20.50
2019-01-26T11:43:37.879Z,19.90
2019-01-26T11:44:37.857Z,19.70
2019-01-26T11:45:37.843Z,18.10
2019-01-26T11:46:37.831Z,18.90
2019-01-26T11:47:37.805Z,19.30
2019-01-26T11:48:37.774Z,18.60
2019-01-26T11:49:37.753Z,20.00
2019-01-26T11:50:37.731Z,20.10
2019-01-26T11:51:37.711Z,27.20
2019-01-26T11:52:37.692Z,34.00
2019-01-26T11:53:37.675Z,27.80
2019-01-26T11:54:37.650Z,31.80
2019-01-26T11:55:37.632Z,22.40
2019-01-26T11:56:37.608Z,20.40
2019-01-26T11:57:37.588Z,19.50
2019-01-26T11:58:37.566Z,17.50
2019-01-26T11:59:37.558Z,18.80
2019-01-26T12:00:38.478Z,20.10
2019-01-26T12:01:37.507Z,19.10
2019-01-26T12:02:37.486Z,19.20
2019-01-26T12:03:37.475Z,19.40
2019-01-26T12:04:37.454Z,19.20
2019-01-26T12:05:37.428Z,20.00
2019-01-26T12:06:37.401Z,20.00
2019-01-26T12:07:37.380Z,20.10
2019-01-26T12:08:37.362Z,20.80
2019-01-26T12:09:37.343Z,18.10
2019-01-26T12:10:37.316Z,20.80
2019-01-26T12:11:37.306Z,21.40
2019-01-26T12:12:37.288Z,20.70
2019-01-26T12:13:37.255Z,21.60
2019-01-26T12:14:37.237Z,21.10
2019-01-26T12:15:37.211Z,22.20
2019-01-26T12:16:37.194Z,22.00
2019-01-26T12:17:37.173Z,22.70
2019-01-26T12:18:37.151Z,22.80
2019-01-26T12:19:37.139Z,22.70
2019-01-26T12:20:37.112Z,21.00
2019-01-26T12:21:37.092Z,22.90
2019-01-26T12:22:37.074Z,22.10
2019-01-26T12:23:37.056Z,20.60
2019-01-26T12:24:37.028Z,24.00
2019-01-26T12:25:37.006Z,23.20
2019-01-26T12:26:36.983Z,23.40
2019-01-26T12:27:36.974Z,23.60
2019-01-26T12:28:36.947Z,23.80
2019-01-26T12:29:36.925Z,23.50
2019-01-26T12:30:36.907Z,23.60
2019-01-26T12:31:36.878Z,21.30
2019-01-26T12:32:36.858Z,22.30
2019-01-26T12:33:36.842Z,24.30
2019-01-26T12:34:36.826Z,22.90
2019-01-26T12:35:36.794Z,22.70
2019-01-26T12:36:36.772Z,23.40
2019-01-26T12:37:36.752Z,22.70
2019-01-26T12:38:36.735Z,22.60
2019-01-26T12:39:36.713Z,22.90
2019-01-26T12:40:36.692Z,22.50
2019-01-26T12:41:36.683Z,23.00
2019-01-26T12:42:36.658Z,22.50
2019-01-26T12:43:36.629Z,22.00
2019-01-26T12:44:36.606Z,23.00
2019-01-26T12:45:36.584Z,22.40
2019-01-26T12:46:36.564Z,23.80
2019-01-26T12:47:36.563Z,22.70
2019-01-26T12:48:36.523Z,21.90
2019-01-26T12:49:36.500Z,22.50
2019-01-26T12:50:36.486Z,23.10
2019-01-26T12:51:36.462Z,22.40
2019-01-26T12:52:36.439Z,20.80